createdAt,value
2019-02-12T00:01:34.083Z,126.35
2019-02-12T00:04:28.581Z,129.90
2019-02-12T00:07:23.028Z,120.85
2019-02-12T00:10:18.012Z,127.07
2019-02-12T00:13:12.558Z,128.23
2019-02-12T00:16:07.454Z,117.85
2019-02-12T00:19:02.220Z,151.63
2019-02-12T00:21:57.137Z,148.10
2019-02-12T00:24:52.162Z,155.25
2019-02-12T00:27:46.728Z,167.20
2019-02-12T00:30:41.561Z,153.85
2019-02-12T00:33:36.320Z,150.90
2019-02-12T00:36:30.932Z,197.13
2019-02-12T00:39:25.887Z,209.05
2019-02-12T00:42:20.531Z,238.55
2019-02-12T00:45:15.334Z,198.13
2019-02-12T00:48:10.216Z,195.60
2019-02-12T00:51:04.958Z,215.80
2019-02-12T00:53:59.652Z,195.38
2019-02-12T00:56:54.409Z,181.90
2019-02-12T00:59:49.105Z,183.90
2019-02-12T01:02:43.685Z,167.37
2019-02-12T01:05:38.251Z,176.47
2019-02-12T01:08:33.296Z,188.57
2019-02-12T01:11:28.311Z,182.80
2019-02-12T01:14:23.260Z,178.85
2019-02-12T01:17:18.316Z,169.47
2019-02-12T01:20:15.052Z,190.62
2019-02-12T01:23:10.653Z,179.18
2019-02-12T01:26:08.952Z,186.88
2019-02-12T01:29:04.833Z,159.07
2019-02-12T01:32:08.979Z,175.80
2019-02-12T01:35:04.756Z,178.95
2019-02-12T01:38:06.574Z,173.85
2019-02-12T01:41:04.944Z,185.05
2019-02-12T01:44:06.532Z,173.17
2019-02-12T01:47:03.015Z,196.63
2019-02-12T01:50:01.342Z,186.30
2019-02-12T01:52:59.012Z,193.80
2019-02-12T01:56:13.558Z,201.67
2019-02-12T01:59:29.067Z,222.20
2019-02-12T02:02:24.585Z,218.70
2019-02-12T02:05:19.158Z,204.93
2019-02-12T02:08:16.025Z,218.70
2019-02-12T02:11:37.674Z,206.05
2019-02-12T02:15:07.603Z,179.85
2019-02-12T02:18:27.545Z,216.25
2019-02-12T02:21:44.795Z,201.05
2019-02-12T02:24:48.467Z,210.97
2019-02-12T02:28:11.013Z,201.30
2019-02-12T02:31:29.966Z,205.30
2019-02-12T02:48:03.709Z,149.05
2019-02-12T02:51:23.630Z,140.57
2019-02-12T03:04:30.772Z,111.83
2019-02-12T03:11:08.230Z,104.78
2019-02-12T03:14:38.819Z,103.50
2019-02-12T03:43:38.910Z,89.67
2019-02-12T03:46:45.285Z,93.22
2019-02-12T03:50:02.026Z,118.17
2019-02-12T03:53:04.115Z,119.70
2019-02-12T03:56:21.271Z,105.22
2019-02-12T03:59:35.670Z,98.80
2019-02-12T04:02:35.465Z,82.30
2019-02-12T04:05:33.623Z,238.75
2019-02-12T04:09:08.896Z,143.72
2019-02-12T04:11:51.840Z,79.40
2019-02-12T04:15:14.104Z,74.30
2019-02-12T04:34:31.386Z,69.80
2019-02-12T04:37:29.830Z,85.22
2019-02-12T04:40:29.267Z,77.30
2019-02-12T04:43:24.976Z,70.62
2019-02-12T04:46:20.427Z,88.40
2019-02-12T04:49:15.891Z,81.50
2019-02-12T04:52:15.117Z,76.35
2019-02-12T04:55:07.654Z,73.62
2019-02-12T04:58:10.228Z,81.63
2019-02-12T05:01:14.834Z,67.58
2019-02-12T05:04:13.677Z,71.07
2019-02-12T05:07:08.794Z,77.58
2019-02-12T05:10:03.909Z,79.92
2019-02-12T05:12:59.788Z,88.17
2019-02-12T05:16:08.595Z,84.85
2019-02-12T05:19:13.172Z,74.92
2019-02-12T05:22:19.021Z,62.88
2019-02-12T05:25:16.011Z,91.72
2019-02-12T05:28:17.867Z,65.05
2019-02-12T05:31:44.401Z,73.47
2019-02-12T05:35:35.525Z,65.22
2019-02-12T05:38:19.579Z,82.17
2019-02-12T05:41:28.313Z,77.97
2019-02-12T05:44:25.009Z,80.00
2019-02-12T05:47:24.795Z,78.97
2019-02-12T05:50:23.917Z,89.32
2019-02-12T05:53:39.915Z,75.95
2019-02-12T05:56:35.978Z,67.82
2019-02-12T05:59:33.208Z,75.92
2019-02-12T06:02:30.067Z,80.28
2019-02-12T06:05:35.760Z,77.35
2019-02-12T06:08:31.293Z,79.72
2019-02-12T06:11:52.553Z,78.62
2019-02-12T06:15:00.556Z,77.72
2019-02-12T06:18:11.447Z,125.10
2019-02-12T06:24:16.550Z,84.70
2019-02-12T06:30:23.079Z,74.30
2019-02-12T06:34:07.690Z,67.08
2019-02-12T06:37:03.995Z,63.48
2019-02-12T06:39:59.304Z,72.17
2019-02-12T06:42:58.032Z,71.33
2019-02-12T06:46:02.614Z,71.57
2019-02-12T06:49:09.469Z,70.05
2019-02-12T06:52:07.470Z,66.57
2019-02-12T06:55:05.662Z,75.85
2019-02-12T06:58:03.913Z,82.62
2019-02-12T07:01:02.713Z,67.10
2019-02-12T07:04:07.595Z,64.90
2019-02-12T07:07:46.671Z,75.80
2019-02-12T07:10:54.643Z,77.15
2019-02-12T07:14:30.618Z,66.50
2019-02-12T07:18:11.899Z,64.40
2019-02-12T07:26:10.774Z,67.42
2019-02-12T07:30:28.491Z,68.35
2019-02-12T07:40:37.317Z,70.28
2019-02-12T07:44:28.558Z,56.13
2019-02-12T07:48:12.141Z,69.00
2019-02-12T07:51:41.898Z,65.00
2019-02-12T08:03:37.184Z,69.03
2019-02-12T08:06:58.470Z,65.45
2019-02-12T08:10:47.981Z,66.15
2019-02-12T08:14:21.441Z,70.40
2019-02-12T08:18:15.864Z,73.72
2019-02-12T08:21:44.959Z,64.55
2019-02-12T08:25:21.981Z,72.55
2019-02-12T08:29:11.090Z,68.70
2019-02-12T08:32:39.355Z,89.22
2019-02-12T08:36:46.903Z,74.92
2019-02-12T08:39:55.167Z,67.70
2019-02-12T08:43:06.051Z,66.70
2019-02-12T08:46:31.900Z,78.12
2019-02-12T08:50:36.784Z,82.82
2019-02-12T08:54:14.803Z,75.42
2019-02-12T08:57:56.678Z,79.95
